Terminal Aerodrome Forecast
Issued by NWS

Home | Current Version | Previous Version | Text Only | Print | Product List | Glossary On
Versions: 1 2 3 4 5 6 7 8 9 10 11 12 13
457
FTUS43 KMPX 161720
TAFRNH
TAF
KRNH 161720Z 1618/1718 30007KT P6SM -SN BKN006 OVC015
     FM161900 30007KT P6SM SCT007 BKN015
     FM162100 28006KT P6SM SCT015
     FM170200 23005KT P6SM BKN100
     FM171200 22008KT P6SM SCT250=

USA.gov is the U.S. government's official web portal to all federal, state and local government web resources and services.